sensor_id;sensor_type;location;lat;lon;timestamp;P1;durP1;ratioP1;P2;durP2;ratioP2
75504;SDS011;64085;54.974;73.410;2022-10-31T00:01:36;6.07;;;3.60;;
75504;SDS011;64085;54.974;73.410;2022-10-31T00:04:04;4.18;;;1.85;;
75504;SDS011;64085;54.974;73.410;2022-10-31T00:06:30;4.97;;;3.70;;
75504;SDS011;64085;54.974;73.410;2022-10-31T00:08:59;14.48;;;5.25;;
75504;SDS011;64085;54.974;73.410;2022-10-31T00:11:26;9.15;;;4.47;;
75504;SDS011;64085;54.974;73.410;2022-10-31T00:13:52;9.98;;;4.85;;
75504;SDS011;64085;54.974;73.410;2022-10-31T00:16:19;4.25;;;2.40;;
75504;SDS011;64085;54.974;73.410;2022-10-31T00:18:57;8.05;;;3.38;;
75504;SDS011;64085;54.974;73.410;2022-10-31T00:21:24;9.20;;;4.97;;
75504;SDS011;64085;54.974;73.410;2022-10-31T00:23:50;8.38;;;4.05;;
75504;SDS011;64085;54.974;73.410;2022-10-31T00:26:17;5.32;;;2.40;;
75504;SDS011;64085;54.974;73.410;2022-10-31T00:28:43;6.82;;;3.72;;
75504;SDS011;64085;54.974;73.410;2022-10-31T00:31:10;11.90;;;3.95;;
75504;SDS011;64085;54.974;73.410;2022-10-31T00:33:37;8.43;;;4.35;;
75504;SDS011;64085;54.974;73.410;2022-10-31T00:36:04;4.97;;;2.50;;
75504;SDS011;64085;54.974;73.410;2022-10-31T00:38:31;8.88;;;4.50;;
75504;SDS011;64085;54.974;73.410;2022-10-31T00:40:57;7.80;;;3.65;;
75504;SDS011;64085;54.974;73.410;2022-10-31T00:43:23;2.15;;;1.73;;
75504;SDS011;64085;54.974;73.410;2022-10-31T00:45:49;6.45;;;3.92;;
75504;SDS011;64085;54.974;73.410;2022-10-31T00:48:15;2.85;;;2.03;;
75504;SDS011;64085;54.974;73.410;2022-10-31T00:50:40;7.65;;;3.83;;
75504;SDS011;64085;54.974;73.410;2022-10-31T00:53:06;7.88;;;3.58;;
75504;SDS011;64085;54.974;73.410;2022-10-31T00:55:32;9.02;;;4.35;;
75504;SDS011;64085;54.974;73.410;2022-10-31T00:57:58;9.82;;;4.35;;
75504;SDS011;64085;54.974;73.410;2022-10-31T01:00:24;4.47;;;3.35;;
75504;SDS011;64085;54.974;73.410;2022-10-31T01:02:50;12.93;;;6.38;;
75504;SDS011;64085;54.974;73.410;2022-10-31T01:05:15;8.65;;;4.78;;
75504;SDS011;64085;54.974;73.410;2022-10-31T01:07:41;10.25;;;4.25;;
75504;SDS011;64085;54.974;73.410;2022-10-31T01:10:07;21.05;;;8.60;;
75504;SDS011;64085;54.974;73.410;2022-10-31T01:12:41;16.35;;;7.47;;
75504;SDS011;64085;54.974;73.410;2022-10-31T01:15:10;36.13;;;17.48;;
75504;SDS011;64085;54.974;73.410;2022-10-31T01:17:38;16.38;;;7.35;;
75504;SDS011;64085;54.974;73.410;2022-10-31T01:20:05;10.35;;;5.50;;
75504;SDS011;64085;54.974;73.410;2022-10-31T01:22:32;10.30;;;4.20;;
75504;SDS011;64085;54.974;73.410;2022-10-31T01:24:58;8.57;;;4.25;;
75504;SDS011;64085;54.974;73.410;2022-10-31T01:27:24;12.95;;;5.15;;
75504;SDS011;64085;54.974;73.410;2022-10-31T01:29:50;6.47;;;3.92;;
75504;SDS011;64085;54.974;73.410;2022-10-31T01:32:15;9.25;;;4.65;;
75504;SDS011;64085;54.974;73.410;2022-10-31T01:34:41;9.45;;;3.83;;
75504;SDS011;64085;54.974;73.410;2022-10-31T01:37:07;13.77;;;5.65;;
75504;SDS011;64085;54.974;73.410;2022-10-31T01:39:32;11.20;;;5.35;;
75504;SDS011;64085;54.974;73.410;2022-10-31T01:41:58;18.35;;;6.45;;
75504;SDS011;64085;54.974;73.410;2022-10-31T01:47:06;19.35;;;8.10;;
75504;SDS011;64085;54.974;73.410;2022-10-31T01:54:43;19.27;;;6.30;;
75504;SDS011;64085;54.974;73.410;2022-10-31T01:57:16;15.43;;;5.55;;
75504;SDS011;64085;54.974;73.410;2022-10-31T01:59:46;4.70;;;4.30;;
75504;SDS011;64085;54.974;73.410;2022-10-31T02:04:41;7.65;;;5.45;;
75504;SDS011;64085;54.974;73.410;2022-10-31T02:07:12;11.85;;;5.13;;
75504;SDS011;64085;54.974;73.410;2022-10-31T02:09:41;11.30;;;3.92;;
75504;SDS011;64085;54.974;73.410;2022-10-31T02:12:08;14.00;;;5.68;;
75504;SDS011;64085;54.974;73.410;2022-10-31T02:14:35;13.68;;;5.53;;
75504;SDS011;64085;54.974;73.410;2022-10-31T02:17:02;10.88;;;6.38;;
75504;SDS011;64085;54.974;73.410;2022-10-31T02:19:41;15.30;;;5.22;;
75504;SDS011;64085;54.974;73.410;2022-10-31T02:30:55;13.93;;;7.57;;
75504;SDS011;64085;54.974;73.410;2022-10-31T02:39:02;11.55;;;5.25;;
75504;SDS011;64085;54.974;73.410;2022-10-31T02:41:43;17.85;;;7.55;;
75504;SDS011;64085;54.974;73.410;2022-10-31T02:44:25;25.45;;;8.38;;
75504;SDS011;64085;54.974;73.410;2022-10-31T02:47:14;20.98;;;7.75;;
75504;SDS011;64085;54.974;73.410;2022-10-31T02:54:54;19.52;;;8.02;;
75504;SDS011;64085;54.974;73.410;2022-10-31T02:57:23;18.60;;;7.78;;
75504;SDS011;64085;54.974;73.410;2022-10-31T02:59:53;19.73;;;8.10;;
75504;SDS011;64085;54.974;73.410;2022-10-31T03:02:26;16.85;;;7.20;;
75504;SDS011;64085;54.974;73.410;2022-10-31T03:10:27;20.42;;;8.77;;
75504;SDS011;64085;54.974;73.410;2022-10-31T03:13:32;15.82;;;6.90;;
75504;SDS011;64085;54.974;73.410;2022-10-31T03:18:53;18.98;;;8.02;;
75504;SDS011;64085;54.974;73.410;2022-10-31T03:21:26;14.60;;;8.38;;
75504;SDS011;64085;54.974;73.410;2022-10-31T03:23:53;24.42;;;8.68;;
75504;SDS011;64085;54.974;73.410;2022-10-31T03:26:21;19.48;;;9.45;;
75504;SDS011;64085;54.974;73.410;2022-10-31T03:29:00;20.98;;;9.63;;
75504;SDS011;64085;54.974;73.410;2022-10-31T03:31:32;21.63;;;9.52;;
75504;SDS011;64085;54.974;73.410;2022-10-31T03:34:02;24.45;;;12.80;;
75504;SDS011;64085;54.974;73.410;2022-10-31T03:36:30;23.35;;;11.60;;
75504;SDS011;64085;54.974;73.410;2022-10-31T03:38:58;21.52;;;10.68;;
75504;SDS011;64085;54.974;73.410;2022-10-31T03:41:28;27.75;;;11.02;;
75504;SDS011;64085;54.974;73.410;2022-10-31T03:44:01;25.33;;;11.60;;
75504;SDS011;64085;54.974;73.410;2022-10-31T03:46:31;34.80;;;15.02;;
75504;SDS011;64085;54.974;73.410;2022-10-31T03:48:57;20.98;;;10.43;;
75504;SDS011;64085;54.974;73.410;2022-10-31T03:54:14;29.48;;;11.68;;
75504;SDS011;64085;54.974;73.410;2022-10-31T03:57:08;27.23;;;11.75;;
75504;SDS011;64085;54.974;73.410;2022-10-31T03:59:46;24.25;;;11.73;;
75504;SDS011;64085;54.974;73.410;2022-10-31T04:02:17;32.08;;;13.18;;
75504;SDS011;64085;54.974;73.410;2022-10-31T04:04:47;28.70;;;14.40;;
75504;SDS011;64085;54.974;73.410;2022-10-31T04:07:15;35.92;;;14.85;;
75504;SDS011;64085;54.974;73.410;2022-10-31T04:09:44;36.88;;;14.63;;
75504;SDS011;64085;54.974;73.410;2022-10-31T04:12:11;38.60;;;17.73;;
75504;SDS011;64085;54.974;73.410;2022-10-31T04:14:40;43.85;;;19.25;;
75504;SDS011;64085;54.974;73.410;2022-10-31T04:17:10;49.78;;;22.52;;
75504;SDS011;64085;54.974;73.410;2022-10-31T04:19:39;53.95;;;21.98;;
75504;SDS011;64085;54.974;73.410;2022-10-31T04:22:05;51.83;;;20.60;;
75504;SDS011;64085;54.974;73.410;2022-10-31T04:24:31;53.53;;;19.48;;
75504;SDS011;64085;54.974;73.410;2022-10-31T04:26:56;49.20;;;21.27;;
75504;SDS011;64085;54.974;73.410;2022-10-31T04:29:22;43.70;;;19.25;;
75504;SDS011;64085;54.974;73.410;2022-10-31T04:31:48;45.60;;;20.35;;
75504;SDS011;64085;54.974;73.410;2022-10-31T04:34:14;45.75;;;21.13;;
75504;SDS011;64085;54.974;73.410;2022-10-31T04:36:39;56.10;;;21.88;;
75504;SDS011;64085;54.974;73.410;2022-10-31T04:39:05;53.45;;;21.73;;
75504;SDS011;64085;54.974;73.410;2022-10-31T04:41:31;52.90;;;20.75;;
75504;SDS011;64085;54.974;73.410;2022-10-31T04:43:56;61.30;;;23.88;;
75504;SDS011;64085;54.974;73.410;2022-10-31T04:46:22;53.25;;;22.27;;
75504;SDS011;64085;54.974;73.410;2022-10-31T04:48:48;51.25;;;22.67;;
75504;SDS011;64085;54.974;73.410;2022-10-31T04:51:14;54.22;;;23.95;;
75504;SDS011;64085;54.974;73.410;2022-10-31T04:53:40;50.92;;;20.20;;
75504;SDS011;64085;54.974;73.410;2022-10-31T04:56:05;46.40;;;21.10;;
75504;SDS011;64085;54.974;73.410;2022-10-31T04:58:31;52.80;;;21.23;;
75504;SDS011;64085;54.974;73.410;2022-10-31T05:00:57;44.28;;;18.77;;
75504;SDS011;64085;54.974;73.410;2022-10-31T05:03:23;47.38;;;19.30;;
75504;SDS011;64085;54.974;73.410;2022-10-31T05:05:49;48.13;;;21.80;;
75504;SDS011;64085;54.974;73.410;2022-10-31T05:08:14;54.40;;;22.08;;
75504;SDS011;64085;54.974;73.410;2022-10-31T05:10:40;41.03;;;18.67;;
75504;SDS011;64085;54.974;73.410;2022-10-31T05:13:06;42.85;;;17.38;;
75504;SDS011;64085;54.974;73.410;2022-10-31T05:15:32;41.75;;;17.65;;
75504;SDS011;64085;54.974;73.410;2022-10-31T05:17:58;49.95;;;19.73;;
75504;SDS011;64085;54.974;73.410;2022-10-31T05:20:25;46.20;;;18.38;;
75504;SDS011;64085;54.974;73.410;2022-10-31T05:22:53;37.65;;;15.85;;
75504;SDS011;64085;54.974;73.410;2022-10-31T05:25:21;37.78;;;16.55;;
75504;SDS011;64085;54.974;73.410;2022-10-31T05:27:49;37.35;;;19.30;;
75504;SDS011;64085;54.974;73.410;2022-10-31T05:30:17;39.63;;;18.40;;
75504;SDS011;64085;54.974;73.410;2022-10-31T05:32:46;39.67;;;20.10;;
75504;SDS011;64085;54.974;73.410;2022-10-31T05:35:16;37.00;;;18.13;;
75504;SDS011;64085;54.974;73.410;2022-10-31T05:37:44;40.22;;;19.95;;
75504;SDS011;64085;54.974;73.410;2022-10-31T05:40:11;47.13;;;20.70;;
75504;SDS011;64085;54.974;73.410;2022-10-31T05:42:38;31.80;;;16.27;;
75504;SDS011;64085;54.974;73.410;2022-10-31T05:45:05;39.15;;;19.30;;
75504;SDS011;64085;54.974;73.410;2022-10-31T05:47:32;26.95;;;14.32;;
75504;SDS011;64085;54.974;73.410;2022-10-31T05:49:58;51.58;;;21.42;;
75504;SDS011;64085;54.974;73.410;2022-10-31T05:52:24;45.90;;;21.05;;
75504;SDS011;64085;54.974;73.410;2022-10-31T05:54:50;49.67;;;20.92;;
75504;SDS011;64085;54.974;73.410;2022-10-31T05:57:15;48.95;;;22.23;;
75504;SDS011;64085;54.974;73.410;2022-10-31T05:59:41;49.10;;;19.50;;
75504;SDS011;64085;54.974;73.410;2022-10-31T06:02:07;43.67;;;19.20;;
75504;SDS011;64085;54.974;73.410;2022-10-31T06:04:32;33.00;;;14.85;;
75504;SDS011;64085;54.974;73.410;2022-10-31T06:06:58;42.60;;;18.88;;
75504;SDS011;64085;54.974;73.410;2022-10-31T06:09:24;42.20;;;18.10;;
75504;SDS011;64085;54.974;73.410;2022-10-31T06:11:49;44.28;;;19.35;;
75504;SDS011;64085;54.974;73.410;2022-10-31T06:14:15;40.08;;;19.55;;
75504;SDS011;64085;54.974;73.410;2022-10-31T06:16:41;51.55;;;20.00;;
75504;SDS011;64085;54.974;73.410;2022-10-31T06:19:06;58.08;;;22.65;;
75504;SDS011;64085;54.974;73.410;2022-10-31T06:21:32;50.40;;;23.42;;
75504;SDS011;64085;54.974;73.410;2022-10-31T06:23:58;49.78;;;24.55;;
75504;SDS011;64085;54.974;73.410;2022-10-31T06:26:23;44.25;;;21.13;;
75504;SDS011;64085;54.974;73.410;2022-10-31T06:28:49;42.67;;;20.00;;
75504;SDS011;64085;54.974;73.410;2022-10-31T06:31:15;37.33;;;18.50;;
75504;SDS011;64085;54.974;73.410;2022-10-31T06:33:41;29.65;;;13.73;;
75504;SDS011;64085;54.974;73.410;2022-10-31T06:36:07;24.58;;;13.13;;
75504;SDS011;64085;54.974;73.410;2022-10-31T06:38:34;27.80;;;13.73;;
75504;SDS011;64085;54.974;73.410;2022-10-31T06:41:03;25.63;;;12.60;;
75504;SDS011;64085;54.974;73.410;2022-10-31T06:43:31;27.38;;;12.57;;
75504;SDS011;64085;54.974;73.410;2022-10-31T06:45:57;31.55;;;14.90;;
75504;SDS011;64085;54.974;73.410;2022-10-31T06:48:23;28.25;;;12.93;;
75504;SDS011;64085;54.974;73.410;2022-10-31T06:50:49;39.20;;;16.00;;
75504;SDS011;64085;54.974;73.410;2022-10-31T06:53:14;41.33;;;17.45;;
75504;SDS011;64085;54.974;73.410;2022-10-31T06:55:41;45.20;;;19.23;;
75504;SDS011;64085;54.974;73.410;2022-10-31T06:58:08;55.53;;;21.15;;
75504;SDS011;64085;54.974;73.410;2022-10-31T07:00:35;49.78;;;21.02;;
75504;SDS011;64085;54.974;73.410;2022-10-31T07:03:02;55.20;;;21.48;;
75504;SDS011;64085;54.974;73.410;2022-10-31T07:05:29;53.58;;;22.88;;
75504;SDS011;64085;54.974;73.410;2022-10-31T07:07:56;39.33;;;19.63;;
75504;SDS011;64085;54.974;73.410;2022-10-31T07:10:23;56.33;;;26.45;;
75504;SDS011;64085;54.974;73.410;2022-10-31T07:12:54;53.08;;;23.25;;
75504;SDS011;64085;54.974;73.410;2022-10-31T07:15:21;61.38;;;25.02;;
75504;SDS011;64085;54.974;73.410;2022-10-31T07:17:47;55.65;;;21.55;;
75504;SDS011;64085;54.974;73.410;2022-10-31T07:20:13;57.00;;;26.65;;
75504;SDS011;64085;54.974;73.410;2022-10-31T07:22:39;52.97;;;23.65;;
75504;SDS011;64085;54.974;73.410;2022-10-31T07:25:05;54.35;;;23.75;;
75504;SDS011;64085;54.974;73.410;2022-10-31T07:27:37;59.35;;;25.48;;
75504;SDS011;64085;54.974;73.410;2022-10-31T07:30:04;44.60;;;20.25;;
75504;SDS011;64085;54.974;73.410;2022-10-31T07:32:41;32.25;;;15.65;;
75504;SDS011;64085;54.974;73.410;2022-10-31T07:35:08;33.80;;;16.33;;
75504;SDS011;64085;54.974;73.410;2022-10-31T07:37:35;32.67;;;15.95;;
75504;SDS011;64085;54.974;73.410;2022-10-31T07:40:01;30.92;;;14.27;;
75504;SDS011;64085;54.974;73.410;2022-10-31T07:42:37;23.67;;;11.10;;
75504;SDS011;64085;54.974;73.410;2022-10-31T07:45:04;27.00;;;12.90;;
75504;SDS011;64085;54.974;73.410;2022-10-31T07:47:39;26.83;;;12.55;;
75504;SDS011;64085;54.974;73.410;2022-10-31T07:50:05;22.85;;;10.88;;
75504;SDS011;64085;54.974;73.410;2022-10-31T07:52:31;30.63;;;16.17;;
75504;SDS011;64085;54.974;73.410;2022-10-31T07:54:57;26.88;;;15.07;;
75504;SDS011;64085;54.974;73.410;2022-10-31T07:57:22;40.90;;;16.42;;
75504;SDS011;64085;54.974;73.410;2022-10-31T07:59:48;38.35;;;18.25;;
75504;SDS011;64085;54.974;73.410;2022-10-31T08:02:14;33.42;;;14.73;;
75504;SDS011;64085;54.974;73.410;2022-10-31T08:04:40;39.03;;;15.57;;
75504;SDS011;64085;54.974;73.410;2022-10-31T08:07:05;36.47;;;14.73;;
75504;SDS011;64085;54.974;73.410;2022-10-31T08:09:31;35.47;;;13.52;;
75504;SDS011;64085;54.974;73.410;2022-10-31T08:11:57;32.65;;;14.25;;
75504;SDS011;64085;54.974;73.410;2022-10-31T08:14:22;31.27;;;14.55;;
75504;SDS011;64085;54.974;73.410;2022-10-31T08:16:48;32.53;;;16.23;;
75504;SDS011;64085;54.974;73.410;2022-10-31T08:19:14;30.02;;;15.73;;
75504;SDS011;64085;54.974;73.410;2022-10-31T08:21:40;36.20;;;16.58;;
75504;SDS011;64085;54.974;73.410;2022-10-31T08:24:06;31.38;;;15.30;;
75504;SDS011;64085;54.974;73.410;2022-10-31T08:26:32;32.25;;;15.57;;
75504;SDS011;64085;54.974;73.410;2022-10-31T08:28:58;33.75;;;18.30;;
75504;SDS011;64085;54.974;73.410;2022-10-31T08:31:24;35.42;;;16.88;;
75504;SDS011;64085;54.974;73.410;2022-10-31T08:33:52;29.45;;;15.63;;
75504;SDS011;64085;54.974;73.410;2022-10-31T08:36:18;34.15;;;16.95;;
75504;SDS011;64085;54.974;73.410;2022-10-31T08:38:46;40.42;;;17.17;;
75504;SDS011;64085;54.974;73.410;2022-10-31T08:41:12;27.55;;;14.93;;
75504;SDS011;64085;54.974;73.410;2022-10-31T08:43:38;33.63;;;15.98;;
75504;SDS011;64085;54.974;73.410;2022-10-31T08:46:04;41.05;;;18.88;;
75504;SDS011;64085;54.974;73.410;2022-10-31T08:48:30;45.25;;;21.42;;
75504;SDS011;64085;54.974;73.410;2022-10-31T08:50:57;36.15;;;14.18;;
75504;SDS011;64085;54.974;73.410;2022-10-31T08:53:24;37.75;;;16.75;;
75504;SDS011;64085;54.974;73.410;2022-10-31T08:55:50;39.25;;;16.27;;
75504;SDS011;64085;54.974;73.410;2022-10-31T08:58:19;33.03;;;16.40;;
75504;SDS011;64085;54.974;73.410;2022-10-31T09:00:46;35.28;;;17.48;;
75504;SDS011;64085;54.974;73.410;2022-10-31T09:03:23;35.58;;;15.00;;
75504;SDS011;64085;54.974;73.410;2022-10-31T09:05:54;34.38;;;17.10;;
75504;SDS011;64085;54.974;73.410;2022-10-31T09:08:21;34.83;;;16.98;;
75504;SDS011;64085;54.974;73.410;2022-10-31T09:10:47;31.65;;;16.50;;
75504;SDS011;64085;54.974;73.410;2022-10-31T09:13:14;31.30;;;14.30;;
75504;SDS011;64085;54.974;73.410;2022-10-31T09:15:43;26.08;;;14.70;;
75504;SDS011;64085;54.974;73.410;2022-10-31T09:18:11;27.85;;;12.50;;
75504;SDS011;64085;54.974;73.410;2022-10-31T09:20:38;26.13;;;13.60;;
75504;SDS011;64085;54.974;73.410;2022-10-31T09:25:44;22.48;;;11.10;;
75504;SDS011;64085;54.974;73.410;2022-10-31T09:28:11;25.20;;;11.52;;
75504;SDS011;64085;54.974;73.410;2022-10-31T09:30:38;28.23;;;13.98;;
75504;SDS011;64085;54.974;73.410;2022-10-31T09:33:11;22.48;;;11.70;;
75504;SDS011;64085;54.974;73.410;2022-10-31T09:35:38;25.42;;;11.90;;
75504;SDS011;64085;54.974;73.410;2022-10-31T09:38:05;25.30;;;15.07;;
75504;SDS011;64085;54.974;73.410;2022-10-31T09:41:01;30.20;;;13.10;;
75504;SDS011;64085;54.974;73.410;2022-10-31T09:49:30;30.05;;;12.38;;
75504;SDS011;64085;54.974;73.410;2022-10-31T09:54:59;24.85;;;11.18;;
75504;SDS011;64085;54.974;73.410;2022-10-31T09:57:40;21.10;;;11.55;;
75504;SDS011;64085;54.974;73.410;2022-10-31T10:00:10;23.50;;;11.20;;
75504;SDS011;64085;54.974;73.410;2022-10-31T10:02:51;23.20;;;11.35;;
75504;SDS011;64085;54.974;73.410;2022-10-31T10:05:23;27.45;;;12.38;;
75504;SDS011;64085;54.974;73.410;2022-10-31T10:08:00;26.65;;;13.23;;
75504;SDS011;64085;54.974;73.410;2022-10-31T10:13:20;23.52;;;12.00;;
75504;SDS011;64085;54.974;73.410;2022-10-31T10:16:19;27.20;;;13.57;;
75504;SDS011;64085;54.974;73.410;2022-10-31T10:21:47;29.10;;;11.18;;
75504;SDS011;64085;54.974;73.410;2022-10-31T10:32:26;22.73;;;10.73;;
75504;SDS011;64085;54.974;73.410;2022-10-31T10:34:55;16.30;;;9.30;;
75504;SDS011;64085;54.974;73.410;2022-10-31T10:37:34;24.23;;;11.55;;
75504;SDS011;64085;54.974;73.410;2022-10-31T10:40:07;24.45;;;11.90;;
75504;SDS011;64085;54.974;73.410;2022-10-31T10:42:41;19.63;;;11.00;;
75504;SDS011;64085;54.974;73.410;2022-10-31T10:45:37;24.15;;;12.20;;
75504;SDS011;64085;54.974;73.410;2022-10-31T10:48:32;30.85;;;12.57;;
75504;SDS011;64085;54.974;73.410;2022-10-31T10:51:06;8.10;;;6.18;;
75504;SDS011;64085;54.974;73.410;2022-10-31T10:59:22;28.75;;;16.00;;
75504;SDS011;64085;54.974;73.410;2022-10-31T11:01:48;26.60;;;12.40;;
75504;SDS011;64085;54.974;73.410;2022-10-31T11:06:56;29.88;;;15.40;;
75504;SDS011;64085;54.974;73.410;2022-10-31T11:09:27;22.83;;;11.27;;
75504;SDS011;64085;54.974;73.410;2022-10-31T11:11:53;20.88;;;10.38;;
75504;SDS011;64085;54.974;73.410;2022-10-31T11:14:20;21.73;;;11.95;;
75504;SDS011;64085;54.974;73.410;2022-10-31T11:16:49;20.67;;;10.88;;
75504;SDS011;64085;54.974;73.410;2022-10-31T11:19:33;22.38;;;11.93;;
75504;SDS011;64085;54.974;73.410;2022-10-31T11:22:06;22.73;;;10.35;;
75504;SDS011;64085;54.974;73.410;2022-10-31T11:24:40;20.80;;;11.05;;
75504;SDS011;64085;54.974;73.410;2022-10-31T11:27:16;22.08;;;9.65;;
75504;SDS011;64085;54.974;73.410;2022-10-31T11:29:46;11.65;;;7.85;;
75504;SDS011;64085;54.974;73.410;2022-10-31T11:32:22;26.10;;;13.05;;
75504;SDS011;64085;54.974;73.410;2022-10-31T11:34:51;24.65;;;13.13;;
75504;SDS011;64085;54.974;73.410;2022-10-31T11:42:45;24.00;;;9.73;;
75504;SDS011;64085;54.974;73.410;2022-10-31T11:45:16;19.63;;;11.40;;
75504;SDS011;64085;54.974;73.410;2022-10-31T11:48:12;24.98;;;13.00;;
75504;SDS011;64085;54.974;73.410;2022-10-31T11:50:49;22.25;;;12.68;;
75504;SDS011;64085;54.974;73.410;2022-10-31T11:53:26;48.03;;;21.85;;
75504;SDS011;64085;54.974;73.410;2022-10-31T11:56:01;42.33;;;17.90;;
75504;SDS011;64085;54.974;73.410;2022-10-31T11:58:55;17.40;;;9.50;;
75504;SDS011;64085;54.974;73.410;2022-10-31T12:01:32;18.52;;;9.75;;
75504;SDS011;64085;54.974;73.410;2022-10-31T12:06:38;21.30;;;9.50;;
75504;SDS011;64085;54.974;73.410;2022-10-31T12:09:21;26.80;;;10.82;;
75504;SDS011;64085;54.974;73.410;2022-10-31T12:22:49;24.10;;;13.57;;
75504;SDS011;64085;54.974;73.410;2022-10-31T12:31:05;24.63;;;11.30;;
75504;SDS011;64085;54.974;73.410;2022-10-31T12:36:55;39.65;;;20.75;;
75504;SDS011;64085;54.974;73.410;2022-10-31T12:39:50;26.67;;;14.93;;
75504;SDS011;64085;54.974;73.410;2022-10-31T12:50:17;16.02;;;8.75;;
75504;SDS011;64085;54.974;73.410;2022-10-31T13:04:17;18.92;;;10.55;;
75504;SDS011;64085;54.974;73.410;2022-10-31T13:06:58;18.95;;;9.18;;
75504;SDS011;64085;54.974;73.410;2022-10-31T13:10:15;38.92;;;19.08;;
75504;SDS011;64085;54.974;73.410;2022-10-31T13:12:23;25.20;;;11.70;;
75504;SDS011;64085;54.974;73.410;2022-10-31T13:14:52;14.52;;;9.82;;
75504;SDS011;64085;54.974;73.410;2022-10-31T13:17:30;27.45;;;12.10;;
75504;SDS011;64085;54.974;73.410;2022-10-31T13:20:08;32.60;;;12.80;;
75504;SDS011;64085;54.974;73.410;2022-10-31T13:22:44;30.63;;;13.52;;
75504;SDS011;64085;54.974;73.410;2022-10-31T13:27:53;9.25;;;6.28;;
75504;SDS011;64085;54.974;73.410;2022-10-31T13:30:27;26.27;;;12.90;;
75504;SDS011;64085;54.974;73.410;2022-10-31T13:33:02;31.10;;;12.32;;
75504;SDS011;64085;54.974;73.410;2022-10-31T13:38:11;22.00;;;9.38;;
75504;SDS011;64085;54.974;73.410;2022-10-31T13:41:10;36.15;;;17.67;;
75504;SDS011;64085;54.974;73.410;2022-10-31T13:46:34;25.40;;;12.75;;
75504;SDS011;64085;54.974;73.410;2022-10-31T13:49:02;35.83;;;16.67;;
75504;SDS011;64085;54.974;73.410;2022-10-31T13:51:29;29.17;;;13.30;;
75504;SDS011;64085;54.974;73.410;2022-10-31T13:56:29;26.27;;;12.60;;
75504;SDS011;64085;54.974;73.410;2022-10-31T14:01:35;34.83;;;16.70;;
75504;SDS011;64085;54.974;73.410;2022-10-31T14:04:03;36.38;;;16.98;;
75504;SDS011;64085;54.974;73.410;2022-10-31T14:06:40;23.92;;;11.38;;
75504;SDS011;64085;54.974;73.410;2022-10-31T14:09:27;28.73;;;13.55;;
75504;SDS011;64085;54.974;73.410;2022-10-31T14:12:00;28.83;;;14.07;;
75504;SDS011;64085;54.974;73.410;2022-10-31T14:14:30;24.38;;;11.63;;
75504;SDS011;64085;54.974;73.410;2022-10-31T14:17:01;18.80;;;10.15;;
75504;SDS011;64085;54.974;73.410;2022-10-31T14:19:28;23.92;;;11.43;;
75504;SDS011;64085;54.974;73.410;2022-10-31T14:21:54;38.40;;;15.68;;
75504;SDS011;64085;54.974;73.410;2022-10-31T14:26:52;32.00;;;15.18;;
75504;SDS011;64085;54.974;73.410;2022-10-31T14:29:26;30.23;;;13.93;;
75504;SDS011;64085;54.974;73.410;2022-10-31T14:31:54;30.60;;;13.20;;
75504;SDS011;64085;54.974;73.410;2022-10-31T14:39:51;30.95;;;12.13;;
75504;SDS011;64085;54.974;73.410;2022-10-31T14:42:25;25.83;;;13.05;;
75504;SDS011;64085;54.974;73.410;2022-10-31T14:45:44;30.27;;;12.48;;
75504;SDS011;64085;54.974;73.410;2022-10-31T14:51:23;29.58;;;11.18;;
75504;SDS011;64085;54.974;73.410;2022-10-31T14:53:56;12.38;;;6.32;;
75504;SDS011;64085;54.974;73.410;2022-10-31T14:56:24;34.45;;;13.98;;
75504;SDS011;64085;54.974;73.410;2022-10-31T14:58:50;30.92;;;13.13;;
75504;SDS011;64085;54.974;73.410;2022-10-31T15:01:22;23.48;;;10.90;;
75504;SDS011;64085;54.974;73.410;2022-10-31T15:03:48;32.75;;;14.85;;
75504;SDS011;64085;54.974;73.410;2022-10-31T15:06:19;34.10;;;14.10;;
75504;SDS011;64085;54.974;73.410;2022-10-31T15:08:48;26.98;;;13.35;;
75504;SDS011;64085;54.974;73.410;2022-10-31T15:11:18;27.63;;;12.63;;
75504;SDS011;64085;54.974;73.410;2022-10-31T15:18:59;21.98;;;10.38;;
75504;SDS011;64085;54.974;73.410;2022-10-31T15:21:28;26.48;;;12.00;;
75504;SDS011;64085;54.974;73.410;2022-10-31T15:23:55;37.58;;;13.55;;
75504;SDS011;64085;54.974;73.410;2022-10-31T15:26:27;23.83;;;10.15;;
75504;SDS011;64085;54.974;73.410;2022-10-31T15:29:02;34.70;;;14.32;;
75504;SDS011;64085;54.974;73.410;2022-10-31T15:31:30;32.17;;;13.93;;
75504;SDS011;64085;54.974;73.410;2022-10-31T15:34:02;32.45;;;13.43;;
75504;SDS011;64085;54.974;73.410;2022-10-31T15:36:41;25.58;;;11.60;;
75504;SDS011;64085;54.974;73.410;2022-10-31T15:39:10;23.60;;;14.73;;
75504;SDS011;64085;54.974;73.410;2022-10-31T15:41:49;29.67;;;12.15;;
75504;SDS011;64085;54.974;73.410;2022-10-31T15:44:21;28.77;;;13.35;;
75504;SDS011;64085;54.974;73.410;2022-10-31T15:46:52;32.10;;;15.68;;
75504;SDS011;64085;54.974;73.410;2022-10-31T15:49:32;31.60;;;13.57;;
75504;SDS011;64085;54.974;73.410;2022-10-31T15:52:05;31.50;;;13.00;;
75504;SDS011;64085;54.974;73.410;2022-10-31T15:54:32;40.63;;;15.40;;
75504;SDS011;64085;54.974;73.410;2022-10-31T15:56:59;37.47;;;13.20;;
75504;SDS011;64085;54.974;73.410;2022-10-31T15:59:25;28.40;;;14.27;;
75504;SDS011;64085;54.974;73.410;2022-10-31T16:01:58;35.03;;;17.23;;
75504;SDS011;64085;54.974;73.410;2022-10-31T16:04:26;23.52;;;11.35;;
75504;SDS011;64085;54.974;73.410;2022-10-31T16:06:59;25.55;;;13.45;;
75504;SDS011;64085;54.974;73.410;2022-10-31T16:09:27;28.08;;;10.93;;
75504;SDS011;64085;54.974;73.410;2022-10-31T16:11:52;22.75;;;10.50;;
75504;SDS011;64085;54.974;73.410;2022-10-31T16:14:28;28.98;;;14.75;;
75504;SDS011;64085;54.974;73.410;2022-10-31T16:16:58;28.65;;;13.93;;
75504;SDS011;64085;54.974;73.410;2022-10-31T16:19:33;47.35;;;23.65;;
75504;SDS011;64085;54.974;73.410;2022-10-31T16:22:11;26.45;;;12.48;;
75504;SDS011;64085;54.974;73.410;2022-10-31T16:24:53;25.50;;;12.05;;
75504;SDS011;64085;54.974;73.410;2022-10-31T16:27:31;23.45;;;10.60;;
75504;SDS011;64085;54.974;73.410;2022-10-31T16:29:59;31.67;;;13.63;;
75504;SDS011;64085;54.974;73.410;2022-10-31T16:35:45;30.83;;;12.52;;
75504;SDS011;64085;54.974;73.410;2022-10-31T16:38:02;40.47;;;21.40;;
75504;SDS011;64085;54.974;73.410;2022-10-31T16:40:28;23.38;;;12.32;;
75504;SDS011;64085;54.974;73.410;2022-10-31T16:42:57;24.98;;;10.15;;
75504;SDS011;64085;54.974;73.410;2022-10-31T16:45:26;25.88;;;10.68;;
75504;SDS011;64085;54.974;73.410;2022-10-31T16:47:54;31.48;;;11.35;;
75504;SDS011;64085;54.974;73.410;2022-10-31T16:50:28;34.25;;;17.67;;
75504;SDS011;64085;54.974;73.410;2022-10-31T16:52:54;22.73;;;11.35;;
75504;SDS011;64085;54.974;73.410;2022-10-31T16:55:20;29.45;;;14.02;;
75504;SDS011;64085;54.974;73.410;2022-10-31T16:57:47;24.05;;;10.23;;
75504;SDS011;64085;54.974;73.410;2022-10-31T17:00:23;26.80;;;14.70;;
75504;SDS011;64085;54.974;73.410;2022-10-31T17:02:52;26.83;;;13.23;;
75504;SDS011;64085;54.974;73.410;2022-10-31T17:05:21;27.42;;;13.05;;